Time;durP1;ratioP1;P1;durP2;ratioP2;P2;SDS_P1;SDS_P2;PMS_P1;PMS_P2;Temp;Humidity;BMP_temperature;BMP_pressure;BME280_temperature;BME280_humidity;BME280_pressure;Samples;Min_cycle;Max_cycle;Signal;HPM_P1;HPM_P2
2022/11/08 00:01:36;;;;;;;50.75;25.90;;;;;;;11.91;100.00;98180.13;4904170;29;20039;-73
2022/11/08 00:04:06;;;;;;;59.70;28.40;;;;;;;11.81;100.00;98176.28;4901496;29;20032;-73
2022/11/08 00:14:45;;;;;;;59.25;29.05;;;;;;;11.71;100.00;98167.88;4904016;29;20487;-71
2022/11/08 00:17:14;;;;;;;61.40;29.13;;;;;;;11.67;100.00;98176.13;4901256;29;20027;-73
2022/11/08 00:19:41;;;;;;;66.15;28.75;;;;;;;11.53;100.00;98168.03;4885667;29;20028;-73
2022/11/08 00:22:06;;;;;;;59.35;27.73;;;;;;;11.61;100.00;98179.16;4901209;29;20692;-72
2022/11/08 00:24:33;;;;;;;58.60;26.83;;;;;;;11.63;100.00;98183.47;4918028;29;20040;-74
2022/11/08 00:27:00;;;;;;;48.22;24.33;;;;;;;11.56;100.00;98189.28;4916953;29;20040;-73
2022/11/08 00:29:25;;;;;;;50.45;24.52;;;;;;;11.50;100.00;98174.41;4917618;29;20398;-73
2022/11/08 00:31:51;;;;;;;56.95;25.20;;;;;;;11.49;100.00;98171.81;4936988;29;20028;-73
2022/11/08 00:34:16;;;;;;;54.47;25.30;;;;;;;11.53;100.00;98173.38;4919667;29;20055;-73
2022/11/08 00:36:42;;;;;;;51.13;23.90;;;;;;;11.60;100.00;98185.47;4936690;29;20028;-74
2022/11/08 00:39:08;;;;;;;49.67;24.30;;;;;;;11.54;100.00;98180.44;4919701;29;20027;-73
2022/11/08 00:41:34;;;;;;;50.90;23.77;;;;;;;11.56;100.00;98170.53;4903837;29;20028;-73
2022/11/08 00:43:59;;;;;;;48.08;23.42;;;;;;;11.54;100.00;98175.09;4936610;29;20042;-73
2022/11/08 00:46:25;;;;;;;57.72;24.33;;;;;;;11.63;100.00;98172.75;4936953;29;20036;-74
2022/11/08 00:48:50;;;;;;;57.53;25.23;;;;;;;11.59;100.00;98173.03;4919407;29;20419;-73
2022/11/08 00:51:16;;;;;;;50.45;24.45;;;;;;;11.57;100.00;98166.88;4936631;29;20123;-73
2022/11/08 00:53:41;;;;;;;49.40;23.98;;;;;;;11.57;100.00;98170.44;4919552;29;20164;-73
2022/11/08 00:56:10;;;;;;;49.83;23.45;;;;;;;11.58;100.00;98165.94;4917277;29;20063;-73
2022/11/08 00:58:36;;;;;;;54.97;23.98;;;;;;;11.56;100.00;98162.50;4900381;29;20091;-73
2022/11/08 01:01:08;;;;;;;52.85;23.40;;;;;;;11.59;100.00;98175.72;4884759;29;20480;-72
2022/11/08 01:03:34;;;;;;;58.13;23.63;;;;;;;11.50;100.00;98166.38;4882162;29;20040;-72
2022/11/08 01:06:04;;;;;;;54.33;25.67;;;;;;;11.50;100.00;98154.78;4915924;29;20048;-73
2022/11/08 01:08:29;;;;;;;50.53;23.33;;;;;;;11.51;100.00;98159.19;4887489;29;20039;-72
2022/11/08 01:10:55;;;;;;;50.55;24.27;;;;;;;11.52;100.00;98163.59;4900310;29;20028;-72
2022/11/08 01:13:20;;;;;;;49.95;24.17;;;;;;;11.55;100.00;98160.75;4919256;29;20015;-73
2022/11/08 01:15:46;;;;;;;55.22;24.70;;;;;;;11.53;100.00;98162.66;4929196;29;20572;-73
2022/11/08 01:18:14;;;;;;;50.05;25.02;;;;;;;11.47;100.00;98158.50;4900173;29;20024;-73
2022/11/08 01:20:41;;;;;;;52.78;25.98;;;;;;;11.59;100.00;98165.00;4899959;29;20028;-72
2022/11/08 01:23:07;;;;;;;47.63;23.23;;;;;;;11.59;100.00;98165.00;4900103;29;20032;-73
2022/11/08 01:25:37;;;;;;;49.33;24.40;;;;;;;11.63;100.00;98164.72;4900156;29;20476;-74
2022/11/08 01:28:03;;;;;;;52.30;25.30;;;;;;;11.63;100.00;98163.88;4884343;29;20133;-72
2022/11/08 01:30:29;;;;;;;51.45;24.52;;;;;;;11.63;100.00;98170.06;4900124;29;20028;-74
2022/11/08 01:32:54;;;;;;;59.10;25.90;;;;;;;11.58;100.00;98165.94;4899670;29;20032;-73
2022/11/08 01:35:20;;;;;;;50.85;24.70;;;;;;;11.51;100.00;98145.78;4916555;29;20056;-72
2022/11/08 01:37:45;;;;;;;57.75;25.33;;;;;;;11.52;100.00;98164.47;4916636;29;20028;-73
2022/11/08 01:40:12;;;;;;;55.25;25.25;;;;;;;11.60;100.00;98169.38;4899742;29;20031;-73
2022/11/08 01:42:37;;;;;;;55.15;25.23;;;;;;;11.66;100.00;98171.75;4916629;29;20043;-72
2022/11/08 01:45:08;;;;;;;52.65;25.65;;;;;;;11.62;100.00;98168.38;4916304;29;20492;-72
2022/11/08 01:47:34;;;;;;;54.10;24.77;;;;;;;11.53;100.00;98168.03;4883793;29;20165;-73
2022/11/08 01:50:10;;;;;;;57.13;24.48;;;;;;;11.59;100.00;98168.53;4916385;29;20538;-72
2022/11/08 01:52:43;;;;;;;54.22;25.67;;;;;;;11.63;100.00;98169.25;4899767;29;20069;-73
2022/11/08 01:55:22;;;;;;;53.22;24.85;;;;;;;11.70;100.00;98170.63;4900339;29;20024;-73
2022/11/08 01:58:31;;;;;;;;;;;;;;;;;;;;;
2022/11/08 02:00:58;;;;;;;63.53;27.17;;;;;;;11.67;100.00;98170.78;4901399;29;20028;-73
2022/11/08 02:03:24;;;;;;;53.28;25.85;;;;;;;11.66;100.00;98161.03;4883498;29;20044;-72
2022/11/08 02:05:50;;;;;;;52.35;26.55;;;;;;;11.60;100.00;98155.97;4899471;29;20511;-73
2022/11/08 02:08:26;;;;;;;54.33;26.05;;;;;;;11.60;100.00;98156.84;4899552;29;20435;-73
2022/11/08 02:10:52;;;;;;;57.63;25.58;;;;;;;11.60;100.00;98158.66;4916303;29;20028;-72
2022/11/08 02:13:20;;;;;;;63.08;27.58;;;;;;;11.58;100.00;98158.75;4899325;29;20028;-72
2022/11/08 02:15:46;;;;;;;59.33;28.25;;;;;;;11.47;100.00;98147.81;4899062;29;20056;-73
2022/11/08 02:18:12;;;;;;;65.53;27.15;;;;;;;11.41;100.00;98154.34;4915760;29;20907;-72
2022/11/08 02:20:40;;;;;;;62.13;26.92;;;;;;;11.42;100.00;98150.72;4898818;29;20028;-72
2022/11/08 02:23:34;;;;;;;64.13;27.15;;;;;;;11.34;100.00;98155.66;4898894;29;20107;-72
2022/11/08 02:25:59;;;;;;;59.97;28.67;;;;;;;11.36;100.00;98169.81;4894328;29;20078;-73
2022/11/08 02:28:25;;;;;;;58.13;27.58;;;;;;;11.31;100.00;98171.88;4915656;29;20055;-73
2022/11/08 02:30:50;;;;;;;57.10;25.70;;;;;;;11.27;100.00;98177.47;4915561;29;20487;-72
2022/11/08 02:33:21;;;;;;;59.30;28.80;;;;;;;11.33;100.00;98196.75;4882976;29;20028;-74
2022/11/08 02:35:56;;;;;;;61.25;28.17;;;;;;;11.30;100.00;98199.59;4898458;29;20057;-74
2022/11/08 02:38:23;;;;;;;65.97;28.90;;;;;;;11.33;100.00;98201.25;4898648;29;20056;-74
2022/11/08 02:40:53;;;;;;;63.83;29.05;;;;;;;11.30;100.00;98204.97;4898446;29;20032;-74
2022/11/08 02:43:20;;;;;;;64.07;28.95;;;;;;;11.33;100.00;98220.00;4898675;29;20032;-73
2022/11/08 02:45:46;;;;;;;68.82;29.58;;;;;;;11.25;100.00;98217.75;4898328;29;20024;-73
2022/11/08 02:48:11;;;;;;;66.07;29.73;;;;;;;11.26;100.00;98215.91;4898321;29;20039;-73
2022/11/08 02:50:37;;;;;;;67.18;29.17;;;;;;;11.35;100.00;98224.31;4882362;29;20063;-73
2022/11/08 02:53:03;;;;;;;65.53;30.63;;;;;;;11.35;100.00;98224.31;4898217;29;20491;-74
2022/11/08 02:55:29;;;;;;;66.45;31.25;;;;;;;11.30;100.00;98215.69;4907128;29;20407;-73
2022/11/08 02:57:55;;;;;;;68.78;29.90;;;;;;;11.31;100.00;98217.41;4901247;29;20084;-73
2022/11/08 03:00:20;;;;;;;66.03;29.85;;;;;;;11.28;100.00;98212.22;4916910;29;20032;-73
2022/11/08 03:02:50;;;;;;;63.15;29.50;;;;;;;11.30;100.00;98218.34;4916685;29;20495;-73
2022/11/08 03:05:16;;;;;;;63.15;28.30;;;;;;;11.16;100.00;98207.53;4901671;29;20054;-73
2022/11/08 03:07:43;;;;;;;55.25;27.83;;;;;;;11.14;100.00;98209.41;4916480;29;20039;-73
2022/11/08 03:10:09;;;;;;;65.32;28.58;;;;;;;11.06;100.00;98200.94;4916848;29;20028;-73
2022/11/08 03:12:35;;;;;;;59.95;27.90;;;;;;;11.01;100.00;98205.69;4916754;29;20110;-73
2022/11/08 03:15:00;;;;;;;59.65;27.17;;;;;;;10.95;100.00;98205.97;4934171;29;20127;-73
2022/11/08 03:17:26;;;;;;;63.42;28.20;;;;;;;10.95;100.00;98210.50;4916629;29;20023;-73
2022/11/08 03:19:52;;;;;;;55.97;27.40;;;;;;;10.92;100.00;98208.81;4916681;29;20027;-73
2022/11/08 03:22:18;;;;;;;66.57;29.70;;;;;;;10.92;100.00;98214.16;4917014;29;20399;-73
2022/11/08 03:24:43;;;;;;;61.90;28.92;;;;;;;11.03;100.00;98232.34;4916487;29;20027;-72
2022/11/08 03:27:09;;;;;;;61.17;28.10;;;;;;;11.12;100.00;98232.72;4916709;29;20499;-73
2022/11/08 03:29:35;;;;;;;63.55;28.77;;;;;;;11.17;100.00;98240.50;4900319;29;20455;-73
2022/11/08 03:32:00;;;;;;;62.97;30.55;;;;;;;11.26;100.00;98230.16;4933368;29;20057;-74
2022/11/08 03:34:26;;;;;;;64.68;30.83;;;;;;;11.19;100.00;98228.78;4933704;29;20040;-73
2022/11/08 03:36:51;;;;;;;68.88;30.50;;;;;;;11.30;100.00;98241.59;4916500;29;20066;-72
2022/11/08 03:39:17;;;;;;;68.95;29.90;;;;;;;11.36;100.00;98241.25;4900818;29;20043;-72
2022/11/08 03:41:42;;;;;;;63.83;30.48;;;;;;;11.40;100.00;98246.38;4933676;29;20094;-74
2022/11/08 03:44:08;;;;;;;65.88;30.73;;;;;;;11.37;100.00;98234.97;4916473;29;20027;-72
2022/11/08 03:46:33;;;;;;;63.47;30.58;;;;;;;11.36;100.00;98239.44;4916206;29;20040;-72
2022/11/08 03:48:59;;;;;;;65.38;29.63;;;;;;;11.36;100.00;98244.81;4933197;29;20038;-73
2022/11/08 03:51:24;;;;;;;66.68;30.52;;;;;;;11.36;100.00;98241.25;4933590;29;20038;-72
2022/11/08 03:53:50;;;;;;;62.63;28.98;;;;;;;11.32;100.00;98240.56;4933275;29;20122;-72
2022/11/08 03:56:15;;;;;;;69.07;30.05;;;;;;;11.32;100.00;98240.56;4933399;29;20023;-72
2022/11/08 03:58:41;;;;;;;60.38;29.67;;;;;;;11.32;100.00;98243.22;4933559;29;20028;-74
2022/11/08 04:01:07;;;;;;;58.50;27.90;;;;;;;11.29;100.00;98239.84;4898175;29;20047;-73
2022/11/08 04:03:32;;;;;;;67.82;29.35;;;;;;;11.31;100.00;98237.97;4897457;29;20035;-73
2022/11/08 04:06:01;;;;;;;60.25;28.55;;;;;;;11.35;100.00;98240.38;4897292;29;20531;-73
2022/11/08 04:08:28;;;;;;;65.50;28.85;;;;;;;11.41;100.00;98253.44;4897653;29;20432;-72
2022/11/08 04:15:13;;;;;;;64.10;28.92;;;;;;;11.52;100.00;98252.00;4897029;29;20423;-71
2022/11/08 04:16:30;;;;;;;63.10;28.20;;;;;;;11.54;100.00;98236.72;4900119;29;20519;-72
2022/11/08 04:21:42;;;;;;;55.40;28.00;;;;;;;11.47;100.00;98232.66;4899981;29;20030;-72
2022/11/08 04:24:08;;;;;;;65.72;27.50;;;;;;;11.49;100.00;98230.75;4896989;29;20180;-73
2022/11/08 04:26:33;;;;;;;65.20;30.00;;;;;;;11.51;100.00;98244.91;4896322;29;20020;-72
2022/11/08 04:29:02;;;;;;;66.55;29.83;;;;;;;11.47;100.00;98238.00;4895492;29;20036;-72
2022/11/08 04:31:27;;;;;;;59.60;29.65;;;;;;;11.49;100.00;98242.34;4905230;29;20028;-72
2022/11/08 04:33:53;;;;;;;67.28;31.83;;;;;;;11.50;100.00;98237.84;4896859;29;20048;-73
2022/11/08 04:36:18;;;;;;;68.47;31.42;;;;;;;11.52;100.00;98244.84;4912819;29;20465;-72
2022/11/08 04:38:48;;;;;;;67.65;29.83;;;;;;;11.56;100.00;98250.91;4913864;29;20020;-73
2022/11/08 04:41:15;;;;;;;67.03;31.77;;;;;;;11.42;100.00;98236.44;4899542;29;20095;-73
2022/11/08 04:43:41;;;;;;;63.33;30.45;;;;;;;11.39;100.00;98244.66;4884989;29;20105;-72
2022/11/08 04:46:09;;;;;;;70.90;32.20;;;;;;;11.41;100.00;98250.78;4900379;29;20028;-73
2022/11/08 04:48:35;;;;;;;64.22;28.45;;;;;;;11.31;100.00;98254.91;4917630;29;20020;-73
2022/11/08 04:51:06;;;;;;;66.03;30.45;;;;;;;11.31;100.00;98244.19;4900244;29;20031;-72
2022/11/08 04:53:32;;;;;;;62.90;28.65;;;;;;;11.29;100.00;98243.41;4900672;29;20128;-73
2022/11/08 04:56:00;;;;;;;67.45;30.48;;;;;;;11.16;100.00;98255.72;4900546;29;20089;-72
2022/11/08 04:58:25;;;;;;;65.35;30.65;;;;;;;11.25;100.00;98252.56;4903225;29;20039;-72
2022/11/08 05:00:50;;;;;;;65.78;29.77;;;;;;;11.27;100.00;98258.69;4919200;29;20023;-72
2022/11/08 05:03:16;;;;;;;75.93;35.10;;;;;;;11.30;100.00;98255.84;4936016;29;20487;-72
2022/11/08 05:05:41;;;;;;;75.72;33.97;;;;;;;11.28;100.00;98243.50;4919043;29;20039;-72
2022/11/08 05:08:07;;;;;;;69.75;30.85;;;;;;;11.24;100.00;98250.81;4927547;29;20219;-72
2022/11/08 05:10:32;;;;;;;57.83;29.40;;;;;;;11.32;100.00;98261.97;4917157;29;20103;-72
2022/11/08 05:12:58;;;;;;;71.88;32.35;;;;;;;11.28;100.00;98248.84;4917154;29;20031;-72
2022/11/08 05:15:23;;;;;;;70.03;30.75;;;;;;;11.27;100.00;98253.34;4916506;29;20032;-73
2022/11/08 05:17:49;;;;;;;68.95;31.23;;;;;;;11.31;100.00;98254.91;4916982;29;20016;-72
2022/11/08 05:25:45;;;;;;;66.22;30.15;;;;;;;11.42;100.00;98254.31;4921604;29;20503;-71
2022/11/08 05:28:11;;;;;;;69.32;29.95;;;;;;;11.39;100.00;98250.00;4935167;29;20472;-71
2022/11/08 05:30:36;;;;;;;58.28;27.20;;;;;;;11.36;100.00;98250.16;4899654;29;20036;-72
2022/11/08 05:33:02;;;;;;;59.78;27.48;;;;;;;11.39;100.00;98263.41;4914663;29;20183;-72
2022/11/08 05:35:28;;;;;;;55.97;27.35;;;;;;;11.34;100.00;98265.47;4918150;29;20419;-71
2022/11/08 05:37:53;;;;;;;57.70;28.98;;;;;;;11.39;100.00;98268.75;4935665;29;20483;-72
2022/11/08 05:40:19;;;;;;;60.70;28.83;;;;;;;11.34;100.00;98259.25;4934348;29;20036;-72
2022/11/08 05:42:44;;;;;;;59.90;28.95;;;;;;;11.31;100.00;98254.91;4916414;29;20028;-72
2022/11/08 05:45:10;;;;;;;72.15;31.45;;;;;;;11.36;100.00;98268.91;4899135;29;20508;-71
2022/11/08 05:47:36;;;;;;;73.50;32.80;;;;;;;11.36;100.00;98268.91;4898926;29;20040;-71
2022/11/08 05:50:02;;;;;;;72.88;33.13;;;;;;;11.35;100.00;98272.53;4899334;29;20047;-72
2022/11/08 05:52:28;;;;;;;75.20;34.10;;;;;;;11.25;100.00;98260.59;4898509;29;20102;-71
2022/11/08 05:54:54;;;;;;;93.45;41.47;;;;;;;11.39;100.00;98281.28;4916361;29;20039;-72
2022/11/08 05:57:19;;;;;;;80.30;38.08;;;;;;;11.39;100.00;98274.09;4899107;29;20102;-71
2022/11/08 05:59:45;;;;;;;81.63;36.20;;;;;;;11.44;100.00;98287.28;4883900;29;20108;-71
2022/11/08 06:02:10;;;;;;;82.65;38.78;;;;;;;11.50;100.00;98280.72;4916012;29;20032;-71
2022/11/08 06:04:36;;;;;;;72.63;34.10;;;;;;;11.58;100.00;98284.69;4899076;29;20074;-71
2022/11/08 06:07:01;;;;;;;73.05;35.13;;;;;;;11.60;100.00;98277.44;4904901;29;20410;-72
2022/11/08 06:09:27;;;;;;;69.00;33.67;;;;;;;11.59;100.00;98274.84;4917506;29;20048;-71
2022/11/08 06:11:52;;;;;;;77.88;36.28;;;;;;;11.65;100.00;98283.44;4934897;29;20028;-71
2022/11/08 06:14:18;;;;;;;76.25;36.17;;;;;;;11.70;100.00;98284.06;4934849;29;20082;-71
2022/11/08 06:16:43;;;;;;;65.68;32.03;;;;;;;11.73;100.00;98285.72;4934532;29;20027;-72
2022/11/08 06:19:09;;;;;;;68.97;36.08;;;;;;;11.65;100.00;98280.75;4934737;29;20446;-71
2022/11/08 06:21:34;;;;;;;63.00;32.22;;;;;;;11.72;100.00;98292.03;4902012;29;20038;-72
2022/11/08 06:24:00;;;;;;;67.30;34.15;;;;;;;11.77;100.00;98298.00;4934697;29;20032;-71
2022/11/08 06:26:25;;;;;;;74.90;37.33;;;;;;;11.84;100.00;98305.59;4934198;29;20175;-71
2022/11/08 06:28:51;;;;;;;81.50;38.60;;;;;;;11.84;100.00;98307.44;4917483;29;20070;-71
2022/11/08 06:31:16;;;;;;;103.78;44.85;;;;;;;11.83;100.00;98305.72;4934424;29;20031;-72
2022/11/08 06:33:42;;;;;;;99.22;44.47;;;;;;;11.70;100.00;98299.28;4934037;29;20070;-71
2022/11/08 06:36:08;;;;;;;102.57;46.17;;;;;;;11.76;100.00;98306.97;4917721;29;20495;-72
2022/11/08 06:38:33;;;;;;;78.53;38.78;;;;;;;11.64;100.00;98304.94;4908207;29;20032;-72
2022/11/08 06:41:00;;;;;;;82.78;38.92;;;;;;;11.69;100.00;98302.91;4915334;29;20032;-71
2022/11/08 06:43:29;;;;;;;77.93;35.97;;;;;;;11.76;100.00;98312.34;4898224;29;20036;-73
2022/11/08 06:45:58;;;;;;;69.30;33.63;;;;;;;11.83;100.00;98305.72;4882933;29;20480;-71
2022/11/08 06:48:24;;;;;;;63.38;31.55;;;;;;;11.91;100.00;98319.53;4898483;29;20467;-71
2022/11/08 06:50:49;;;;;;;60.42;31.10;;;;;;;12.07;100.00;98315.06;4914919;29;20047;-72
2022/11/08 06:53:15;;;;;;;66.03;29.17;;;;;;;12.17;100.00;98316.31;4929633;29;20040;-72
2022/11/08 06:55:41;;;;;;;62.30;30.77;;;;;;;12.02;100.00;98311.78;4916483;29;20484;-72
2022/11/08 06:58:06;;;;;;;67.53;29.70;;;;;;;11.98;100.00;98304.84;4906194;29;20403;-72
2022/11/08 07:00:32;;;;;;;73.30;31.05;;;;;;;12.07;100.00;98309.72;4906049;29;20122;-71
2022/11/08 07:02:59;;;;;;;62.38;29.83;;;;;;;12.14;100.00;98311.09;4933622;29;20036;-72
2022/11/08 07:05:25;;;;;;;59.20;31.00;;;;;;;12.19;100.00;98313.50;4900707;29;20202;-72
2022/11/08 07:07:51;;;;;;;65.50;30.55;;;;;;;12.37;100.00;98313.34;4933619;29;20514;-72
2022/11/08 07:10:18;;;;;;;62.45;29.55;;;;;;;12.50;100.00;98306.34;4887286;29;20052;-72
2022/11/08 07:12:44;;;;;;;63.30;28.48;;;;;;;12.56;100.00;98296.19;4897656;29;20160;-72
2022/11/08 07:15:09;;;;;;;56.63;27.88;;;;;;;12.60;100.00;98285.19;4914763;29;20110;-71
2022/11/08 07:17:35;;;;;;;58.65;29.27;;;;;;;12.66;100.00;98283.97;4913851;29;20472;-71
2022/11/08 07:20:01;;;;;;;62.28;31.00;;;;;;;12.75;100.00;98281.63;4905075;29;20445;-71
2022/11/08 07:22:26;;;;;;;63.78;30.23;;;;;;;12.72;100.00;98275.56;4914618;29;20032;-72
2022/11/08 07:24:52;;;;;;;61.95;31.50;;;;;;;12.79;100.00;98271.56;4897434;29;20047;-71
2022/11/08 07:27:17;;;;;;;75.10;35.35;;;;;;;12.90;100.00;98261.03;4897740;29;20096;-71
2022/11/08 07:29:43;;;;;;;72.10;36.58;;;;;;;13.07;100.00;98260.91;4914437;29;20419;-72
2022/11/08 07:32:08;;;;;;;73.85;34.15;;;;;;;13.50;100.00;98262.69;4926897;29;20041;-71
2022/11/08 07:34:35;;;;;;;63.50;33.78;;;;;;;13.63;100.00;98251.19;4933425;29;20081;-71
2022/11/08 07:37:00;;;;;;;70.35;32.97;;;;;;;13.85;100.00;98238.97;4933798;29;20032;-71
2022/11/08 07:39:26;;;;;;;64.57;31.48;;;;;;;13.93;100.00;98223.22;4900655;29;20471;-71
2022/11/08 07:41:51;;;;;;;68.65;32.85;;;;;;;14.03;100.00;98220.78;4931268;29;20079;-72
2022/11/08 07:44:17;;;;;;;65.57;32.80;;;;;;;14.06;100.00;98217.88;4927324;29;20037;-71
2022/11/08 07:46:42;;;;;;;64.15;35.10;;;;;;;14.20;100.00;98212.47;4933230;29;20044;-70
2022/11/08 07:49:08;;;;;;;68.25;33.45;;;;;;;14.40;100.00;98206.66;4916461;29;20035;-73
2022/11/08 07:51:33;;;;;;;74.40;34.30;;;;;;;14.54;100.00;98203.91;4933418;29;20063;-71
2022/11/08 07:53:59;;;;;;;62.33;30.10;;;;;;;14.68;100.00;98200.28;4900323;29;20143;-72
2022/11/08 07:56:25;;;;;;;60.13;30.15;;;;;;;14.78;100.00;98196.00;4933409;29;20487;-70
2022/11/08 07:58:52;;;;;;;63.20;30.63;;;;;;;14.68;100.00;98192.19;4915916;29;20115;-70
2022/11/08 08:01:17;;;;;;;56.58;30.30;;;;;;;14.59;100.00;98182.91;4933142;29;20027;-72
2022/11/08 08:03:43;;;;;;;57.90;29.77;;;;;;;14.61;100.00;98183.66;4900232;29;20038;-72
2022/11/08 08:06:08;;;;;;;59.63;29.73;;;;;;;14.73;100.00;98178.44;4916052;29;20031;-71
2022/11/08 08:08:34;;;;;;;72.50;33.58;;;;;;;14.87;100.00;98183.72;4933169;29;20032;-72
2022/11/08 08:11:00;;;;;;;62.88;31.05;;;;;;;15.04;100.00;98178.88;4915866;29;20105;-72
2022/11/08 08:13:26;;;;;;;55.38;29.02;;;;;;;15.16;100.00;98169.09;4900361;29;20023;-72
2022/11/08 08:15:52;;;;;;;55.72;26.95;;;;;;;15.41;100.00;98165.53;4918097;29;20035;-73
2022/11/08 08:18:19;;;;;;;49.72;25.40;;;;;;;16.40;100.00;98178.84;4936939;29;20402;-73
2022/11/08 08:20:45;;;;;;;47.13;24.85;;;;;;;17.98;100.00;98178.06;4937217;29;20038;-73
2022/11/08 08:23:11;;;;;;;44.28;24.20;;;;;;;19.29;94.75;98156.94;4896632;29;20090;-73
2022/11/08 08:25:37;;;;;;;43.10;23.48;;;;;;;20.25;88.08;98141.06;4903929;29;20039;-71
2022/11/08 08:28:04;;;;;;;50.95;25.63;;;;;;;20.84;83.20;98109.22;4919812;29;20039;-72
2022/11/08 08:30:31;;;;;;;45.30;24.10;;;;;;;22.50;73.30;98099.19;4919810;29;20089;-71
2022/11/08 08:33:05;;;;;;;40.67;23.13;;;;;;;23.70;65.64;98077.41;4907057;29;20411;-72
2022/11/08 08:35:32;;;;;;;43.83;23.13;;;;;;;23.98;64.51;98064.38;4903206;29;20091;-72
2022/11/08 08:38:01;;;;;;;64.38;38.42;;;;;;;24.06;62.96;98053.44;4919800;29;20051;-72
2022/11/08 08:40:27;;;;;;;44.85;23.63;;;;;;;24.09;60.58;98033.97;4919272;29;20126;-72
2022/11/08 08:42:53;;;;;;;40.17;23.23;;;;;;;24.30;60.81;98021.75;4919640;29;20032;-71
2022/11/08 08:45:18;;;;;;;46.13;26.77;;;;;;;24.80;59.38;98015.06;4919347;29;20610;-72
2022/11/08 08:47:44;;;;;;;49.20;28.85;;;;;;;24.36;59.27;98004.66;4919358;29;20114;-72
2022/11/08 08:50:10;;;;;;;42.38;24.80;;;;;;;23.44;62.21;98011.03;4936388;29;20036;-73
2022/11/08 08:52:35;;;;;;;39.78;23.95;;;;;;;22.29;64.80;97997.75;4919178;29;20062;-73
2022/11/08 08:55:00;;;;;;;44.38;23.95;;;;;;;22.37;65.97;98008.72;4919213;29;20027;-72
2022/11/08 08:57:26;;;;;;;73.32;38.00;;;;;;;22.47;65.26;98006.78;4918936;29;20459;-72
2022/11/08 08:59:51;;;;;;;72.90;40.28;;;;;;;22.33;65.51;97994.56;4936261;29;20477;-72
2022/11/08 09:02:17;;;;;;;58.08;35.63;;;;;;;22.78;65.63;98001.75;4936122;29;20419;-72
2022/11/08 09:04:43;;;;;;;62.67;33.38;;;;;;;23.99;61.74;97991.41;4936076;29;20063;-72
2022/11/08 09:07:08;;;;;;;49.55;25.77;;;;;;;25.09;58.59;97989.91;4919020;29;20052;-71
2022/11/08 09:09:35;;;;;;;35.45;22.13;;;;;;;25.94;54.06;97971.75;4935755;29;20056;-71
2022/11/08 09:12:01;;;;;;;37.00;21.83;;;;;;;25.56;54.04;97968.03;4919222;29;20571;-70
2022/11/08 09:14:27;;;;;;;42.03;22.00;;;;;;;25.40;55.07;97967.22;4918992;29;20059;-73
2022/11/08 09:16:52;;;;;;;38.05;21.95;;;;;;;25.50;55.02;97967.91;4936179;29;20028;-73
2022/11/08 09:19:18;;;;;;;38.03;20.80;;;;;;;24.70;56.44;97953.34;4935982;29;20513;-72
2022/11/08 09:21:43;;;;;;;38.45;20.55;;;;;;;23.96;57.35;97943.41;4935667;29;20030;-72
2022/11/08 09:24:09;;;;;;;37.35;21.13;;;;;;;22.92;60.08;97944.72;4935687;29;20031;-72
2022/11/08 09:26:34;;;;;;;35.47;21.45;;;;;;;23.39;56.77;97933.31;4917484;29;20547;-71
2022/11/08 09:29:00;;;;;;;38.05;21.67;;;;;;;21.89;61.92;97935.56;4902877;29;20178;-72
2022/11/08 09:31:25;;;;;;;45.97;23.75;;;;;;;22.34;62.72;97940.88;4935484;29;20410;-72
2022/11/08 09:33:51;;;;;;;36.38;21.63;;;;;;;23.03;60.48;97944.44;4935406;29;20055;-72
2022/11/08 09:36:17;;;;;;;38.00;22.10;;;;;;;23.31;59.15;97930.56;4918775;29;20027;-73
2022/11/08 09:38:42;;;;;;;42.25;21.33;;;;;;;22.82;60.38;97919.44;4918228;29;20034;-71
2022/11/08 09:41:14;;;;;;;36.78;21.67;;;;;;;21.00;63.98;97899.16;4918736;29;20103;-71
2022/11/08 09:44:16;;;;;;;43.70;21.25;;;;;;;20.72;67.44;97913.72;4918169;29;20032;-72
2022/11/08 09:46:51;;;;;;;40.08;20.83;;;;;;;21.90;64.74;97937.28;4854363;29;20131;-71
2022/11/08 09:49:32;;;;;;;38.80;21.33;;;;;;;23.06;60.50;97937.81;4902413;29;20027;-73
2022/11/08 09:51:59;;;;;;;40.70;22.42;;;;;;;23.39;59.45;97911.47;4918100;29;20114;-72
2022/11/08 09:54:41;;;;;;;37.90;20.75;;;;;;;24.43;56.16;97912.66;4918240;29;20111;-72
2022/11/08 09:57:19;;;;;;;42.17;22.05;;;;;;;25.03;54.16;97892.03;4918293;29;20159;-73
2022/11/08 09:59:52;;;;;;;37.00;21.70;;;;;;;24.28;55.21;97882.44;4915484;29;20059;-72
2022/11/08 10:02:20;;;;;;;41.10;22.20;;;;;;;24.79;54.18;97889.38;4912503;29;20106;-71
2022/11/08 10:04:56;;;;;;;38.92;22.30;;;;;;;25.59;51.23;97879.13;4917796;29;20038;-72
2022/11/08 10:07:45;;;;;;;37.33;21.25;;;;;;;24.97;52.98;97881.81;4902115;29;20035;-72
2022/11/08 10:10:54;;;;;;;43.53;22.15;;;;;;;25.90;50.18;97871.72;4917910;29;20027;-71
2022/11/08 10:13:31;;;;;;;35.15;21.27;;;;;;;26.55;49.39;97874.75;4911651;29;20024;-72
2022/11/08 10:16:09;;;;;;;39.17;21.70;;;;;;;26.43;49.18;97859.78;4915709;29;20039;-71
2022/11/08 10:18:52;;;;;;;35.17;20.10;;;;;;;27.18;48.41;97863.25;4915590;29;20092;-72
2022/11/08 10:21:37;;;;;;;40.63;20.50;;;;;;;26.64;47.18;97848.91;4903797;29;20127;-71
2022/11/08 10:24:26;;;;;;;38.95;20.55;;;;;;;26.19;48.54;97843.53;4917471;29;20411;-71
2022/11/08 10:26:52;;;;;;;32.47;19.20;;;;;;;25.80;49.18;97836.31;4916497;29;20124;-72
2022/11/08 10:29:26;;;;;;;35.70;19.20;;;;;;;25.38;49.25;97835.06;4913211;29;20404;-72
2022/11/08 10:31:57;;;;;;;34.90;20.05;;;;;;;25.74;49.33;97844.41;4898618;29;20030;-72
2022/11/08 10:34:28;;;;;;;34.28;19.08;;;;;;;26.50;47.53;97855.25;4898753;29;20228;-71
2022/11/08 10:36:59;;;;;;;32.05;18.92;;;;;;;27.35;45.66;97839.97;4883258;29;20139;-73
2022/11/08 10:39:31;;;;;;;33.90;19.15;;;;;;;26.94;45.68;97825.09;4898364;29;20028;-72
2022/11/08 10:42:17;;;;;;;34.42;18.67;;;;;;;25.29;47.54;97810.44;4898337;29;20565;-72
2022/11/08 10:44:43;;;;;;;31.80;18.85;;;;;;;25.83;47.28;97825.00;4898334;29;20046;-73
2022/11/08 10:47:25;;;;;;;28.77;16.88;;;;;;;26.51;45.97;97826.78;4914896;29;20028;-71
2022/11/08 10:49:53;;;;;;;23.27;14.55;;;;;;;27.20;44.44;97817.19;4898691;29;20036;-73
2022/11/08 10:52:33;;;;;;;24.02;15.13;;;;;;;26.46;44.75;97801.78;4898314;29;20032;-71
2022/11/08 10:55:00;;;;;;;22.35;13.10;;;;;;;27.12;43.34;97814.56;4914957;29;20064;-71
2022/11/08 10:57:28;;;;;;;26.90;14.88;;;;;;;27.43;43.18;97804.19;4898212;29;20403;-73
2022/11/08 10:59:55;;;;;;;26.65;14.85;;;;;;;27.81;42.84;97802.03;4924938;29;20504;-72
2022/11/08 11:02:24;;;;;;;28.23;14.93;;;;;;;27.59;43.09;97789.34;4916747;29;20035;-72
2022/11/08 11:04:51;;;;;;;25.80;14.00;;;;;;;27.34;43.38;97776.97;4917033;29;20027;-72
2022/11/08 11:07:28;;;;;;;26.33;15.38;;;;;;;26.14;45.86;97780.16;4912077;29;20031;-72
2022/11/08 11:09:53;;;;;;;24.58;13.40;;;;;;;26.39;44.84;97778.88;4897883;29;20056;-73
2022/11/08 11:12:19;;;;;;;23.75;14.38;;;;;;;27.18;44.54;97778.06;4914592;29;20115;-72
2022/11/08 11:14:45;;;;;;;30.77;14.70;;;;;;;27.59;43.83;97788.50;4914679;29;20123;-72
2022/11/08 11:17:16;;;;;;;18.75;12.73;;;;;;;27.63;43.72;97776.88;4898048;29;20028;-72
2022/11/08 11:19:53;;;;;;;22.67;12.38;;;;;;;28.23;40.73;97768.16;4898034;29;20038;-73
2022/11/08 11:22:28;;;;;;;19.52;11.30;;;;;;;28.06;40.70;97763.97;4914574;29;20548;-72
2022/11/08 11:24:54;;;;;;;21.38;11.63;;;;;;;28.55;39.09;97757.56;4914805;29;20147;-72
2022/11/08 11:27:31;;;;;;;20.40;11.52;;;;;;;29.12;38.40;97763.56;4898626;29;20027;-72
2022/11/08 11:30:29;;;;;;;21.33;11.65;;;;;;;28.51;39.34;97752.47;4897732;29;20129;-71
2022/11/08 11:33:05;;;;;;;19.38;10.82;;;;;;;27.74;40.37;97739.78;4863082;29;20118;-72
2022/11/08 11:35:51;;;;;;;20.23;11.30;;;;;;;27.42;41.01;97738.38;4881720;29;20052;-72